Time;durP1;ratioP1;P1;durP2;ratioP2;P2;SDS_P1;SDS_P2;PMS_P1;PMS_P2;Temp;Humidity;BMP_temperature;BMP_pressure;BME280_temperature;BME280_humidity;BME280_pressure;Samples;Min_cycle;Max_cycle;Signal;HPM_P1;HPM_P2
2023/09/20 00:00:33;;;;;;;0.10;0.10;;;17.00;99.90;;;;;;5075323;28;20093;-80
2023/09/20 00:02:59;;;;;;;0.20;0.20;;;17.00;99.90;;;;;;5086645;28;20055;-79
2023/09/20 00:05:26;;;;;;;0.10;0.10;;;17.00;99.90;;;;;;5089997;28;20086;-80
2023/09/20 00:07:55;;;;;;;0.20;0.20;;;17.00;99.90;;;;;;5090181;28;20124;-80
2023/09/20 00:10:24;;;;;;;0.10;0.10;;;16.90;99.90;;;;;;5106845;28;20172;-81
2023/09/20 00:12:50;;;;;;;0.10;0.10;;;17.00;99.90;;;;;;5088359;28;20056;-80
2023/09/20 00:15:16;;;;;;;0.10;0.10;;;17.00;99.90;;;;;;5089478;28;20055;-80
2023/09/20 00:17:43;;;;;;;0.10;0.10;;;17.00;99.90;;;;;;5089386;28;20048;-80
2023/09/20 00:20:12;;;;;;;0.10;0.10;;;17.00;99.90;;;;;;5089561;28;20046;-80
2023/09/20 00:22:40;;;;;;;0.13;0.13;;;17.00;99.90;;;;;;5090495;28;20048;-80
2023/09/20 00:25:10;;;;;;;0.10;0.10;;;17.00;99.90;;;;;;5090427;28;20052;-80
2023/09/20 00:27:38;;;;;;;0.13;0.13;;;17.00;99.90;;;;;;5073364;28;20101;-80
2023/09/20 00:30:14;;;;;;;0.10;0.10;;;17.00;99.90;;;;;;5069895;28;20052;-81
2023/09/20 00:32:43;;;;;;;0.10;0.10;;;17.00;99.90;;;;;;5071538;28;20052;-80
2023/09/20 00:35:12;;;;;;;0.20;0.20;;;17.00;99.90;;;;;;5087034;28;20074;-80
2023/09/20 00:37:42;;;;;;;0.17;0.17;;;17.00;99.90;;;;;;5089124;28;20056;-80
2023/09/20 00:40:17;;;;;;;0.10;0.10;;;16.90;99.90;;;;;;5076425;28;20036;-80
2023/09/20 00:42:45;;;;;;;0.13;0.13;;;17.00;99.90;;;;;;5068309;28;20119;-81
2023/09/20 00:45:15;;;;;;;0.10;0.10;;;17.00;99.90;;;;;;5078246;28;20036;-81
2023/09/20 00:47:57;;;;;;;0.10;0.10;;;17.00;99.90;;;;;;5089429;28;20084;-80
2023/09/20 00:50:27;;;;;;;0.10;0.10;;;17.00;99.90;;;;;;5088718;28;20137;-80
2023/09/20 00:52:55;;;;;;;0.10;0.10;;;17.00;99.90;;;;;;5086810;28;20111;-81
2023/09/20 00:55:33;;;;;;;0.20;0.20;;;17.00;99.90;;;;;;5089094;28;20101;-80
2023/09/20 00:58:07;;;;;;;0.20;0.20;;;17.00;99.90;;;;;;5089171;28;20097;-79
2023/09/20 01:00:40;;;;;;;0.10;0.10;;;17.10;99.90;;;;;;5088485;28;20126;-80
2023/09/20 01:03:06;;;;;;;0.10;0.10;;;17.00;99.90;;;;;;5084202;28;20101;-79
2023/09/20 01:05:37;;;;;;;0.20;0.20;;;17.00;99.90;;;;;;5083551;28;20071;-80
2023/09/20 01:08:04;;;;;;;0.20;0.20;;;17.00;99.90;;;;;;5089347;28;20044;-79
2023/09/20 01:10:31;;;;;;;0.10;0.10;;;17.00;99.90;;;;;;5088774;28;20388;-81
2023/09/20 01:12:59;;;;;;;0.10;0.10;;;17.00;99.90;;;;;;5088983;28;20052;-80
2023/09/20 01:15:26;;;;;;;0.10;0.10;;;17.00;99.90;;;;;;5088722;28;20484;-79
2023/09/20 01:17:55;;;;;;;0.10;0.10;;;17.00;99.90;;;;;;5081005;28;20040;-80
2023/09/20 01:20:23;;;;;;;0.10;0.10;;;17.00;99.90;;;;;;5068604;28;20054;-80
2023/09/20 01:22:56;;;;;;;0.13;0.13;;;17.00;99.90;;;;;;5070063;28;20527;-80
2023/09/20 01:25:29;;;;;;;0.20;0.20;;;17.00;99.90;;;;;;5074036;28;20712;-80
2023/09/20 01:27:57;;;;;;;0.10;0.10;;;17.00;99.90;;;;;;5089009;28;20036;-80
2023/09/20 01:30:27;;;;;;;0.10;0.10;;;17.10;99.90;;;;;;5088028;28;20094;-80
2023/09/20 01:32:58;;;;;;;0.10;0.10;;;17.10;99.90;;;;;;5089240;28;20036;-80
2023/09/20 01:35:26;;;;;;;0.20;0.20;;;17.10;99.90;;;;;;5079497;28;20040;-80
2023/09/20 01:37:53;;;;;;;0.10;0.10;;;17.10;99.90;;;;;;5085967;28;20123;-81
2023/09/20 01:40:19;;;;;;;0.10;0.10;;;17.10;99.90;;;;;;5088855;28;20048;-81
2023/09/20 01:42:47;;;;;;;0.10;0.10;;;17.10;99.90;;;;;;5087955;28;20368;-80
2023/09/20 01:45:18;;;;;;;0.10;0.10;;;17.10;99.90;;;;;;5087549;28;20032;-80
2023/09/20 01:47:45;;;;;;;0.10;0.10;;;17.10;99.90;;;;;;5088785;28;20055;-81
2023/09/20 01:50:19;;;;;;;0.10;0.10;;;17.10;99.90;;;;;;5088304;28;20040;-80
2023/09/20 01:52:50;;;;;;;0.17;0.17;;;17.10;99.90;;;;;;5086979;28;20044;-80
2023/09/20 01:55:18;;;;;;;0.10;0.10;;;17.10;99.90;;;;;;5088701;28;20054;-79
2023/09/20 01:57:55;;;;;;;0.10;0.10;;;17.10;99.90;;;;;;5087878;28;20109;-79
2023/09/20 02:00:22;;;;;;;0.10;0.10;;;17.10;99.90;;;;;;5088157;28;20363;-79
2023/09/20 02:02:53;;;;;;;0.10;0.10;;;17.10;99.90;;;;;;5088221;28;20039;-80
2023/09/20 02:05:21;;;;;;;0.10;0.10;;;17.10;99.90;;;;;;5084329;28;20048;-79
2023/09/20 02:07:48;;;;;;;0.10;0.10;;;17.10;99.90;;;;;;5074529;28;20054;-80
2023/09/20 02:10:16;;;;;;;0.15;0.15;;;17.10;99.90;;;;;;5068582;28;20045;-80
2023/09/20 02:12:51;;;;;;;0.20;0.20;;;17.10;99.90;;;;;;5066049;28;20068;-79
2023/09/20 02:15:21;;;;;;;0.10;0.10;;;17.10;99.90;;;;;;5075753;28;20101;-79
2023/09/20 02:17:47;;;;;;;0.20;0.20;;;17.10;99.90;;;;;;5082839;28;20471;-78
2023/09/20 02:20:19;;;;;;;0.20;0.20;;;17.10;99.90;;;;;;5081983;28;20110;-79
2023/09/20 02:22:50;;;;;;;0.10;0.10;;;17.20;99.90;;;;;;5108114;28;20043;-79
2023/09/20 02:25:24;;;;;;;0.13;0.13;;;17.20;99.90;;;;;;5091072;28;20075;-79
2023/09/20 02:27:52;;;;;;;0.30;0.30;;;17.20;99.90;;;;;;5066820;28;20052;-80
2023/09/20 02:30:19;;;;;;;0.10;0.10;;;17.20;99.90;;;;;;5068036;28;20114;-80
2023/09/20 02:32:52;;;;;;;0.10;0.10;;;17.30;99.90;;;;;;5067504;28;20046;-79
2023/09/20 02:35:22;;;;;;;0.10;0.10;;;17.20;99.90;;;;;;5087325;28;20036;-80
2023/09/20 02:37:49;;;;;;;0.20;0.20;;;17.20;99.90;;;;;;5087332;28;20051;-79
2023/09/20 02:40:17;;;;;;;0.20;0.20;;;17.20;99.90;;;;;;5077416;28;20040;-79
2023/09/20 02:42:52;;;;;;;0.15;0.15;;;17.20;99.90;;;;;;5095169;28;20056;-79
2023/09/20 02:45:22;;;;;;;0.10;0.10;;;17.30;99.90;;;;;;5079296;28;20048;-80
2023/09/20 02:47:48;;;;;;;0.10;0.10;;;17.30;99.90;;;;;;5086356;28;20068;-80
2023/09/20 02:50:18;;;;;;;0.10;0.10;;;17.30;99.90;;;;;;5087486;28;20127;-80
2023/09/20 02:52:45;;;;;;;0.10;0.10;;;17.30;99.90;;;;;;5086492;28;20414;-80
2023/09/20 02:55:13;;;;;;;0.20;0.20;;;17.30;99.90;;;;;;5085618;28;20633;-80
2023/09/20 02:57:40;;;;;;;0.20;0.20;;;17.30;99.90;;;;;;5086189;28;20052;-80
2023/09/20 03:00:28;;;;;;;0.10;0.10;;;17.30;99.90;;;;;;5079422;28;20072;-79
2023/09/20 03:02:56;;;;;;;0.10;0.10;;;17.30;99.90;;;;;;5087004;28;20122;-80
2023/09/20 03:05:28;;;;;;;0.20;0.20;;;17.30;99.90;;;;;;5083266;28;20131;-79
2023/09/20 03:07:55;;;;;;;0.10;0.10;;;17.30;99.90;;;;;;5086966;28;20098;-79
2023/09/20 03:10:22;;;;;;;0.10;0.10;;;17.30;99.90;;;;;;5087359;28;20048;-79
2023/09/20 03:12:51;;;;;;;0.17;0.17;;;17.30;99.90;;;;;;5087324;28;20093;-79
2023/09/20 03:15:22;;;;;;;0.20;0.20;;;17.30;99.90;;;;;;5083278;28;20110;-79
2023/09/20 03:17:49;;;;;;;0.20;0.20;;;17.40;99.90;;;;;;5079880;28;20098;-80
2023/09/20 03:20:25;;;;;;;0.10;0.10;;;17.40;99.90;;;;;;5084230;28;20047;-80
2023/09/20 03:22:57;;;;;;;0.10;0.10;;;17.40;99.90;;;;;;5089739;28;20112;-80
2023/09/20 03:25:23;;;;;;;0.10;0.10;;;17.40;99.90;;;;;;5089311;28;20040;-79
2023/09/20 03:27:50;;;;;;;0.20;0.20;;;17.40;99.90;;;;;;5090869;28;20058;-81
2023/09/20 03:30:16;;;;;;;0.20;0.20;;;17.40;99.90;;;;;;5087381;28;20471;-79
2023/09/20 03:32:50;;;;;;;0.10;0.10;;;17.40;99.90;;;;;;5088823;28;20085;-80
2023/09/20 03:35:16;;;;;;;0.20;0.20;;;17.40;99.90;;;;;;5089266;28;20415;-79
2023/09/20 03:37:43;;;;;;;0.10;0.10;;;17.40;99.90;;;;;;5090227;28;20040;-78
2023/09/20 03:40:11;;;;;;;0.20;0.20;;;17.40;99.90;;;;;;5090876;28;20101;-80
2023/09/20 03:42:40;;;;;;;0.10;0.10;;;17.40;99.90;;;;;;5089275;28;20083;-79
2023/09/20 03:45:10;;;;;;;0.50;0.30;;;17.50;99.90;;;;;;5080086;28;20058;-80
2023/09/20 03:47:39;;;;;;;0.20;0.20;;;17.40;99.90;;;;;;5089148;28;20059;-80
2023/09/20 03:50:09;;;;;;;0.10;0.10;;;17.30;99.90;;;;;;5088469;28;20298;-80
2023/09/20 03:52:42;;;;;;;0.20;0.20;;;17.40;99.90;;;;;;5088605;28;20036;-80
2023/09/20 03:55:07;;;;;;;0.10;0.10;;;17.40;99.90;;;;;;5090014;28;20032;-80
2023/09/20 03:57:34;;;;;;;0.20;0.20;;;17.40;99.90;;;;;;5089249;28;20059;-80
2023/09/20 04:00:00;;;;;;;0.10;0.10;;;17.40;99.90;;;;;;5087701;28;20036;-80
2023/09/20 04:02:28;;;;;;;0.20;0.20;;;17.50;99.90;;;;;;5090418;28;20080;-79
2023/09/20 04:04:55;;;;;;;0.10;0.10;;;17.50;99.90;;;;;;5090577;28;20055;-78
2023/09/20 04:07:26;;;;;;;0.10;0.10;;;17.50;99.90;;;;;;5082490;28;20445;-79
2023/09/20 04:09:52;;;;;;;0.20;0.20;;;17.50;99.90;;;;;;5079557;28;20052;-79
2023/09/20 04:12:18;;;;;;;0.10;0.10;;;17.40;99.90;;;;;;5088890;28;20047;-79
2023/09/20 04:14:44;;;;;;;0.10;0.10;;;17.50;99.90;;;;;;5086820;28;20052;-79
2023/09/20 04:17:10;;;;;;;0.10;0.10;;;17.40;99.90;;;;;;5089157;28;20040;-79
2023/09/20 04:19:39;;;;;;;0.20;0.20;;;17.50;99.90;;;;;;5085851;28;20491;-79
2023/09/20 04:22:05;;;;;;;0.20;0.20;;;17.40;99.90;;;;;;5089489;28;20402;-79
2023/09/20 04:24:32;;;;;;;0.10;0.10;;;17.40;99.90;;;;;;5087867;28;20059;-78
2023/09/20 04:26:58;;;;;;;0.10;0.10;;;17.40;99.90;;;;;;5089636;28;20059;-79
2023/09/20 04:29:25;;;;;;;0.10;0.10;;;17.40;99.90;;;;;;5084410;28;20040;-79
2023/09/20 04:31:52;;;;;;;0.10;0.10;;;17.40;99.90;;;;;;5094286;28;20039;-79
2023/09/20 04:34:18;;;;;;;0.20;0.20;;;17.40;99.90;;;;;;5089832;28;20394;-79
2023/09/20 04:36:44;;;;;;;0.20;0.20;;;17.40;99.90;;;;;;5089128;28;20048;-78
2023/09/20 04:39:11;;;;;;;0.20;0.20;;;17.40;99.90;;;;;;5101120;28;20134;-79
2023/09/20 04:41:38;;;;;;;0.17;0.17;;;17.40;99.90;;;;;;5069064;28;20387;-79
2023/09/20 04:44:07;;;;;;;0.30;0.28;;;17.30;99.90;;;;;;5070252;28;20044;-78
2023/09/20 04:46:35;;;;;;;0.20;0.20;;;17.30;99.90;;;;;;5084786;28;20132;-78
2023/09/20 04:49:01;;;;;;;0.10;0.10;;;17.30;99.90;;;;;;5106858;28;20039;-78
2023/09/20 04:51:26;;;;;;;0.17;0.17;;;17.30;99.90;;;;;;5088141;28;20044;-79
2023/09/20 04:53:52;;;;;;;0.20;0.20;;;17.20;99.90;;;;;;5089425;28;20581;-79
2023/09/20 04:56:18;;;;;;;0.20;0.20;;;17.20;99.90;;;;;;5088415;28;20085;-79
2023/09/20 04:58:43;;;;;;;0.20;0.20;;;17.20;99.90;;;;;;5081857;28;20488;-79
2023/09/20 05:01:14;;;;;;;0.15;0.15;;;17.10;99.90;;;;;;5078281;28;20056;-79
2023/09/20 05:03:40;;;;;;;0.20;0.20;;;17.10;99.90;;;;;;5088684;28;20134;-79
2023/09/20 05:06:06;;;;;;;0.15;0.15;;;17.10;99.90;;;;;;5088430;28;20127;-79
2023/09/20 05:08:32;;;;;;;0.10;0.10;;;17.00;99.90;;;;;;5082446;28;20629;-79
2023/09/20 05:10:58;;;;;;;0.30;0.30;;;17.00;99.90;;;;;;5086498;28;20113;-79
2023/09/20 05:13:24;;;;;;;0.20;0.20;;;16.90;99.90;;;;;;5087702;28;20074;-79
2023/09/20 05:15:52;;;;;;;0.10;0.10;;;16.90;99.90;;;;;;5087451;28;20110;-79
2023/09/20 05:18:18;;;;;;;0.20;0.20;;;16.90;99.90;;;;;;5105842;28;20047;-78
2023/09/20 05:20:49;;;;;;;0.20;0.20;;;16.90;99.90;;;;;;5098929;28;20146;-79
2023/09/20 05:23:14;;;;;;;0.20;0.20;;;16.80;99.90;;;;;;5088192;28;20568;-80
2023/09/20 05:25:40;;;;;;;0.17;0.17;;;16.80;99.90;;;;;;5088457;28;20090;-79
2023/09/20 05:28:06;;;;;;;3.13;0.85;;;16.70;99.90;;;;;;5087817;28;20541;-80
2023/09/20 05:30:32;;;;;;;0.10;0.10;;;16.70;99.90;;;;;;5087436;28;20043;-80
2023/09/20 05:32:58;;;;;;;0.10;0.10;;;16.70;99.90;;;;;;5080236;28;20056;-79
2023/09/20 05:35:27;;;;;;;0.10;0.10;;;16.70;99.90;;;;;;5067848;28;20047;-78
2023/09/20 05:37:53;;;;;;;0.10;0.10;;;16.70;99.90;;;;;;5067590;28;20071;-79
2023/09/20 05:40:18;;;;;;;0.10;0.10;;;16.70;99.90;;;;;;5083427;28;20500;-80
2023/09/20 05:42:50;;;;;;;0.10;0.10;;;16.70;99.90;;;;;;5087015;28;20563;-78
2023/09/20 05:45:16;;;;;;;0.10;0.10;;;16.70;99.90;;;;;;5064536;28;20127;-79
2023/09/20 05:47:43;;;;;;;0.10;0.10;;;16.70;99.90;;;;;;5087938;28;20403;-79
2023/09/20 05:50:14;;;;;;;0.20;0.20;;;16.70;99.90;;;;;;5087773;28;20070;-79
2023/09/20 05:52:49;;;;;;;0.10;0.10;;;16.70;99.90;;;;;;5087751;28;20066;-80
2023/09/20 05:55:15;;;;;;;0.10;0.10;;;16.70;99.90;;;;;;5088581;28;20361;-79
2023/09/20 05:57:44;;;;;;;0.10;0.10;;;16.80;99.90;;;;;;5087283;28;20583;-78
2023/09/20 06:00:18;;;;;;;0.10;0.10;;;16.80;99.90;;;;;;5088090;28;20131;-79
2023/09/20 06:02:44;;;;;;;0.10;0.10;;;16.80;99.90;;;;;;5089180;28;20484;-79
2023/09/20 06:05:11;;;;;;;0.10;0.10;;;16.80;99.90;;;;;;5087288;28;20055;-79
2023/09/20 06:07:40;;;;;;;0.10;0.10;;;16.80;99.90;;;;;;5076171;28;20178;-79
2023/09/20 06:10:09;;;;;;;0.10;0.10;;;16.70;99.90;;;;;;5088253;28;20511;-80
2023/09/20 06:12:35;;;;;;;0.20;0.20;;;16.80;99.90;;;;;;5083748;28;20158;-78
2023/09/20 06:15:01;;;;;;;0.20;0.20;;;16.80;99.90;;;;;;5085057;28;20067;-78
2023/09/20 06:17:32;;;;;;;0.10;0.10;;;16.80;99.90;;;;;;5081756;28;20060;-79
2023/09/20 06:20:01;;;;;;;0.20;0.20;;;16.70;99.90;;;;;;5084732;28;20044;-78
2023/09/20 06:22:30;;;;;;;0.10;0.10;;;16.80;99.90;;;;;;5085265;28;20036;-78
2023/09/20 06:24:58;;;;;;;0.20;0.20;;;16.80;99.90;;;;;;5074417;28;20520;-78
2023/09/20 06:27:30;;;;;;;0.10;0.10;;;16.80;99.90;;;;;;5087614;28;20051;-79
2023/09/20 06:29:56;;;;;;;0.15;0.15;;;16.80;99.90;;;;;;5107809;28;20487;-79
2023/09/20 06:32:28;;;;;;;0.10;0.10;;;16.90;99.90;;;;;;5089961;28;20044;-80
2023/09/20 06:34:53;;;;;;;0.15;0.15;;;16.90;99.90;;;;;;5100255;28;20047;-79
2023/09/20 06:37:19;;;;;;;0.10;0.10;;;16.90;99.90;;;;;;5108712;28;20473;-79
2023/09/20 06:39:45;;;;;;;0.17;0.17;;;16.90;99.90;;;;;;5096177;28;20039;-78
2023/09/20 06:42:10;;;;;;;0.10;0.10;;;16.90;99.90;;;;;;5086192;28;20043;-79
2023/09/20 06:44:38;;;;;;;0.10;0.10;;;16.90;99.90;;;;;;5087304;28;20372;-79
2023/09/20 06:47:06;;;;;;;0.13;0.13;;;16.90;99.90;;;;;;5085108;28;20130;-79
2023/09/20 06:49:32;;;;;;;0.10;0.10;;;16.80;99.90;;;;;;5084956;28;20032;-78
2023/09/20 06:52:01;;;;;;;0.10;0.10;;;16.80;99.90;;;;;;5074681;28;20453;-79
2023/09/20 06:54:28;;;;;;;0.20;0.20;;;16.90;99.90;;;;;;5087560;28;20558;-79
2023/09/20 06:56:57;;;;;;;0.10;0.10;;;16.90;99.90;;;;;;5088575;28;20040;-79
2023/09/20 06:59:22;;;;;;;0.13;0.13;;;16.90;99.90;;;;;;5091053;28;20084;-79
2023/09/20 07:01:50;;;;;;;0.10;0.10;;;16.90;99.90;;;;;;5090048;28;20121;-79
2023/09/20 07:04:16;;;;;;;0.20;0.20;;;16.90;99.90;;;;;;5089249;28;20044;-78
2023/09/20 07:06:42;;;;;;;0.20;0.20;;;16.90;99.90;;;;;;5089742;28;20407;-79
2023/09/20 07:09:08;;;;;;;0.10;0.10;;;16.90;99.90;;;;;;5084508;28;20075;-80
2023/09/20 07:11:34;;;;;;;0.10;0.10;;;17.00;99.90;;;;;;5089228;28;20119;-79
2023/09/20 07:14:05;;;;;;;0.10;0.10;;;17.00;99.90;;;;;;5091622;28;20132;-79
2023/09/20 07:16:36;;;;;;;0.20;0.20;;;16.90;99.90;;;;;;5070402;28;20056;-80
2023/09/20 07:19:05;;;;;;;0.20;0.20;;;17.00;99.90;;;;;;5068900;28;20080;-79
2023/09/20 07:21:37;;;;;;;0.10;0.10;;;17.00;99.90;;;;;;5071338;28;20049;-79
2023/09/20 07:24:03;;;;;;;0.10;0.10;;;17.00;99.90;;;;;;5089768;28;20047;-80
2023/09/20 07:26:29;;;;;;;0.15;0.15;;;17.00;99.90;;;;;;5091749;28;20055;-80
2023/09/20 07:28:55;;;;;;;0.10;0.10;;;17.10;99.90;;;;;;5090989;28;20047;-79
2023/09/20 07:31:21;;;;;;;0.20;0.20;;;17.10;99.90;;;;;;5088101;28;20041;-79
2023/09/20 07:33:48;;;;;;;0.10;0.10;;;17.10;99.90;;;;;;5071724;28;20099;-79
2023/09/20 07:36:15;;;;;;;0.10;0.10;;;17.20;99.90;;;;;;5091157;28;20052;-79
2023/09/20 07:38:41;;;;;;;0.15;0.15;;;17.20;99.90;;;;;;5086909;28;20510;-79
2023/09/20 07:41:13;;;;;;;0.20;0.20;;;17.30;99.90;;;;;;5085289;28;20043;-79
2023/09/20 07:43:41;;;;;;;0.20;0.20;;;17.40;99.90;;;;;;5086862;28;20499;-78
2023/09/20 07:46:07;;;;;;;0.20;0.20;;;17.50;99.90;;;;;;5091164;28;20051;-79
2023/09/20 07:48:34;;;;;;;0.10;0.10;;;17.60;99.90;;;;;;5085841;28;20048;-79
2023/09/20 07:51:04;;;;;;;0.20;0.20;;;17.60;99.90;;;;;;5076640;28;20083;-78
2023/09/20 07:53:30;;;;;;;0.20;0.20;;;17.70;99.90;;;;;;5092594;28;20047;-79
2023/09/20 07:56:01;;;;;;;0.20;0.20;;;17.70;99.90;;;;;;5097300;28;20089;-79
2023/09/20 07:58:28;;;;;;;0.20;0.20;;;17.70;99.90;;;;;;5088352;28;20056;-80
2023/09/20 08:00:56;;;;;;;0.20;0.20;;;17.70;99.90;;;;;;5089731;28;20055;-79
2023/09/20 08:03:23;;;;;;;0.10;0.10;;;17.70;99.90;;;;;;5090899;28;20086;-79
2023/09/20 08:05:50;;;;;;;0.20;0.20;;;17.70;99.90;;;;;;5083688;28;20088;-80
2023/09/20 08:08:16;;;;;;;0.20;0.20;;;17.80;99.90;;;;;;5070206;28;20057;-78
2023/09/20 08:10:44;;;;;;;0.20;0.20;;;17.80;99.90;;;;;;5073911;28;20055;-78
2023/09/20 08:13:11;;;;;;;0.20;0.20;;;17.80;99.90;;;;;;5073994;28;20543;-78
2023/09/20 08:15:48;;;;;;;0.20;0.20;;;17.80;99.90;;;;;;5089093;28;20091;-77
2023/09/20 08:20:59;;;;;;;0.15;0.15;;;17.90;99.90;;;;;;5090952;28;20044;-78
2023/09/20 09:02:19;;;;;;;0.20;0.20;;;18.40;99.90;;;;;;5088175;28;20058;-79
2023/09/20 09:04:54;;;;;;;0.10;0.10;;;18.40;99.90;;;;;;5088846;28;20476;-79
2023/09/20 09:07:23;;;;;;;0.15;0.15;;;18.40;99.90;;;;;;5089061;28;20044;-79
2023/09/20 09:09:50;;;;;;;0.10;0.10;;;18.40;99.90;;;;;;5088876;28;20071;-80
2023/09/20 09:12:16;;;;;;;0.20;0.20;;;18.40;99.90;;;;;;5088580;28;20491;-78
2023/09/20 09:14:42;;;;;;;0.20;0.20;;;18.40;99.90;;;;;;5088118;28;20106;-79
2023/09/20 09:17:09;;;;;;;0.20;0.20;;;18.40;99.90;;;;;;5088642;28;20048;-80
2023/09/20 09:19:37;;;;;;;0.10;0.10;;;18.40;99.90;;;;;;5089530;28;20048;-80
2023/09/20 09:22:03;;;;;;;0.10;0.10;;;18.40;99.90;;;;;;5090067;28;20051;-80
2023/09/20 09:24:43;;;;;;;0.20;0.20;;;18.40;99.90;;;;;;5092287;28;20066;-79
2023/09/20 09:27:10;;;;;;;0.20;0.20;;;18.40;99.90;;;;;;5092798;28;20144;-80
2023/09/20 09:29:36;;;;;;;0.20;0.20;;;18.40;99.90;;;;;;5091403;28;20081;-80
2023/09/20 09:32:04;;;;;;;0.15;0.15;;;18.30;99.90;;;;;;5090516;28;20127;-80
2023/09/20 09:34:30;;;;;;;0.10;0.10;;;18.30;99.90;;;;;;5092239;28;21019;-80
2023/09/20 09:36:56;;;;;;;0.20;0.20;;;18.40;99.90;;;;;;5087086;28;20111;-79
2023/09/20 09:39:24;;;;;;;0.20;0.20;;;18.40;99.90;;;;;;5082965;28;20035;-80
2023/09/20 09:41:51;;;;;;;0.10;0.10;;;18.40;99.90;;;;;;5090573;28;20142;-79
2023/09/20 09:44:17;;;;;;;0.20;0.20;;;18.40;99.90;;;;;;5092470;28;20122;-79
2023/09/20 09:46:43;;;;;;;0.20;0.20;;;18.50;99.90;;;;;;5090750;28;20244;-79
2023/09/20 09:49:12;;;;;;;0.20;0.20;;;18.50;99.90;;;;;;5092539;28;20143;-80
2023/09/20 09:51:45;;;;;;;0.20;0.20;;;18.50;99.90;;;;;;5091935;28;20050;-80
2023/09/20 09:54:15;;;;;;;0.20;0.20;;;18.50;99.90;;;;;;5094377;28;20071;-79
2023/09/20 09:56:41;;;;;;;0.20;0.20;;;18.50;99.90;;;;;;5089374;28;20045;-80
2023/09/20 09:59:07;;;;;;;0.10;0.10;;;18.60;99.90;;;;;;5083589;28;20036;-80
2023/09/20 10:01:38;;;;;;;0.10;0.10;;;18.60;99.90;;;;;;5088700;28;20044;-79
2023/09/20 10:04:07;;;;;;;0.20;0.20;;;18.60;99.90;;;;;;5086163;28;20052;-80
2023/09/20 10:07:02;;;;;;;0.10;0.10;;;18.60;99.90;;;;;;5086338;28;20048;-80
2023/09/20 10:09:35;;;;;;;0.20;0.20;;;18.60;99.90;;;;;;5086242;28;20047;-80
2023/09/20 10:12:01;;;;;;;0.20;0.20;;;18.60;99.90;;;;;;5084626;28;20429;-79
2023/09/20 10:14:27;;;;;;;0.20;0.20;;;18.70;99.90;;;;;;5087790;28;20107;-80
2023/09/20 10:16:54;;;;;;;0.10;0.10;;;18.80;99.90;;;;;;5088593;28;20117;-80
2023/09/20 10:19:19;;;;;;;0.20;0.20;;;18.80;99.90;;;;;;5085852;28;20059;-80
2023/09/20 10:22:09;;;;;;;0.20;0.20;;;18.90;99.90;;;;;;5089239;28;20036;-81
2023/09/20 10:24:58;;;;;;;0.20;0.20;;;18.90;99.90;;;;;;5084591;28;20051;-81
2023/09/20 10:27:28;;;;;;;0.20;0.20;;;18.90;99.90;;;;;;5069400;28;20567;-80
2023/09/20 10:30:11;;;;;;;0.20;0.20;;;18.90;99.90;;;;;;5076733;28;20040;-81
2023/09/20 10:32:53;;;;;;;0.10;0.10;;;19.00;99.90;;;;;;5084784;28;20051;-79
2023/09/20 10:35:23;;;;;;;0.20;0.20;;;19.00;99.90;;;;;;5088192;28;20084;-80
2023/09/20 10:38:23;;;;;;;0.15;0.15;;;18.90;99.90;;;;;;5089717;28;20061;-80
2023/09/20 10:40:51;;;;;;;0.10;0.10;;;18.90;99.90;;;;;;5086037;28;20051;-81
2023/09/20 10:43:25;;;;;;;0.25;0.25;;;19.00;99.90;;;;;;5088251;28;20120;-80
2023/09/20 10:45:52;;;;;;;0.20;0.20;;;19.00;99.90;;;;;;5085016;28;20048;-81
2023/09/20 10:48:22;;;;;;;0.10;0.10;;;19.00;99.90;;;;;;5069639;28;20063;-81
2023/09/20 10:50:49;;;;;;;0.20;0.20;;;19.00;99.90;;;;;;5072581;28;20055;-82
2023/09/20 10:53:18;;;;;;;0.10;0.10;;;19.00;99.90;;;;;;5081259;28;20119;-81
2023/09/20 10:55:45;;;;;;;0.15;0.15;;;19.00;99.90;;;;;;5085753;28;20051;-81
2023/09/20 10:58:14;;;;;;;0.20;0.20;;;19.00;99.90;;;;;;5082003;28;20032;-81
2023/09/20 11:00:40;;;;;;;0.17;0.17;;;19.00;99.90;;;;;;5085834;28;20090;-81
2023/09/20 11:03:09;;;;;;;0.10;0.10;;;19.00;99.90;;;;;;5090353;28;20051;-81
2023/09/20 11:05:36;;;;;;;0.20;0.20;;;19.00;99.90;;;;;;5090367;28;20047;-82
2023/09/20 11:08:11;;;;;;;0.20;0.20;;;19.10;99.90;;;;;;5092061;28;20135;-81
2023/09/20 11:10:40;;;;;;;0.20;0.20;;;19.00;99.90;;;;;;5099492;28;20055;-81
2023/09/20 11:13:09;;;;;;;0.20;0.20;;;19.10;99.90;;;;;;5085729;28;20601;-81
2023/09/20 11:15:41;;;;;;;0.20;0.20;;;19.10;99.90;;;;;;5086680;28;20456;-81
2023/09/20 11:18:07;;;;;;;0.13;0.13;;;19.10;99.90;;;;;;5091906;28;20047;-81
2023/09/20 11:20:34;;;;;;;0.20;0.20;;;19.10;99.90;;;;;;5087127;28;20597;-80
2023/09/20 11:23:02;;;;;;;0.20;0.20;;;19.10;99.90;;;;;;5092969;28;20104;-81
2023/09/20 11:25:29;;;;;;;0.20;0.20;;;19.10;99.90;;;;;;5088780;28;20044;-81
2023/09/20 11:27:56;;;;;;;0.20;0.20;;;19.10;99.90;;;;;;5091739;28;20047;-80
2023/09/20 11:30:27;;;;;;;0.20;0.20;;;19.10;99.90;;;;;;5083126;28;20051;-81
2023/09/20 11:32:57;;;;;;;0.20;0.20;;;19.10;99.90;;;;;;5105055;28;20398;-82
2023/09/20 11:35:42;;;;;;;0.20;0.20;;;19.10;99.90;;;;;;5106924;28;20058;-82
2023/09/20 11:38:15;;;;;;;0.10;0.10;;;19.10;99.90;;;;;;5086531;28;20097;-81
2023/09/20 11:40:41;;;;;;;0.10;0.10;;;19.10;99.90;;;;;;5085663;28;20399;-81
2023/09/20 11:43:09;;;;;;;0.17;0.17;;;19.10;99.90;;;;;;5091932;28;20044;-81
2023/09/20 11:45:41;;;;;;;0.10;0.10;;;19.10;99.90;;;;;;5089385;28;20276;-82
2023/09/20 11:48:08;;;;;;;0.20;0.20;;;19.10;99.90;;;;;;5091825;28;20051;-82
2023/09/20 11:50:40;;;;;;;0.20;0.20;;;19.10;99.90;;;;;;5092881;28;20593;-82
2023/09/20 11:53:07;;;;;;;0.20;0.20;;;19.10;99.90;;;;;;5091154;28;20393;-81
2023/09/20 11:55:33;;;;;;;0.10;0.10;;;19.10;99.90;;;;;;5090941;28;20054;-78
2023/09/20 11:58:00;;;;;;;0.20;0.20;;;19.10;99.90;;;;;;5090761;28;20040;-79
2023/09/20 12:00:27;;;;;;;0.20;0.20;;;19.20;99.90;;;;;;5090543;28;20450;-79
2023/09/20 12:02:53;;;;;;;0.15;0.15;;;19.20;99.90;;;;;;5091220;28;20040;-80
2023/09/20 12:05:21;;;;;;;0.20;0.20;;;19.20;99.90;;;;;;5089552;28;20042;-79
2023/09/20 12:07:58;;;;;;;0.20;0.20;;;19.20;99.90;;;;;;5092665;28;20056;-79
2023/09/20 12:10:28;;;;;;;0.10;0.10;;;19.30;99.90;;;;;;5092609;28;20044;-79
2023/09/20 12:12:54;;;;;;;0.20;0.20;;;19.30;99.90;;;;;;5087518;28;20040;-78
2023/09/20 12:15:23;;;;;;;0.20;0.20;;;19.30;99.90;;;;;;5094414;28;20064;-80
2023/09/20 12:17:56;;;;;;;0.20;0.20;;;19.30;99.90;;;;;;5092246;28;20047;-80
2023/09/20 12:20:25;;;;;;;0.10;0.10;;;19.30;99.90;;;;;;5093694;28;20044;-80
2023/09/20 12:22:51;;;;;;;0.20;0.20;;;19.30;99.90;;;;;;5092464;28;20675;-80
2023/09/20 12:25:17;;;;;;;0.20;0.20;;;19.30;99.90;;;;;;5102937;28;20043;-80
2023/09/20 12:27:45;;;;;;;0.13;0.13;;;19.30;99.90;;;;;;5111953;28;20180;-80
2023/09/20 12:30:13;;;;;;;0.20;0.20;;;19.30;99.90;;;;;;5090483;28;20067;-81
2023/09/20 12:32:42;;;;;;;0.20;0.20;;;19.40;99.90;;;;;;5092060;28;20278;-81
2023/09/20 12:35:10;;;;;;;0.20;0.20;;;19.40;99.90;;;;;;5097187;28;20040;-81
2023/09/20 12:37:39;;;;;;;0.20;0.20;;;19.40;99.90;;;;;;5090974;28;22104;-80
2023/09/20 12:40:08;;;;;;;0.20;0.20;;;19.50;99.90;;;;;;5082286;28;20411;-81
2023/09/20 12:42:35;;;;;;;0.20;0.20;;;19.50;99.90;;;;;;5091244;28;20040;-80
2023/09/20 12:45:04;;;;;;;0.20;0.20;;;19.50;99.90;;;;;;5091656;28;20036;-81
2023/09/20 12:47:32;;;;;;;0.20;0.20;;;19.50;99.90;;;;;;5091738;28;20504;-80
2023/09/20 12:49:58;;;;;;;0.20;0.20;;;19.50;99.90;;;;;;5090170;28;20490;-81
2023/09/20 12:52:23;;;;;;;0.20;0.20;;;19.50;99.90;;;;;;5097885;28;20044;-81
2023/09/20 12:54:49;;;;;;;0.20;0.20;;;19.50;99.90;;;;;;5089404;28;20130;-81
2023/09/20 12:57:15;;;;;;;0.20;0.20;;;19.60;99.90;;;;;;5092677;28;20387;-80
2023/09/20 12:59:41;;;;;;;0.10;0.10;;;19.60;99.90;;;;;;5094112;28;20486;-80
2023/09/20 13:02:08;;;;;;;0.20;0.20;;;19.70;99.90;;;;;;5090278;28;20040;-80
2023/09/20 13:04:34;;;;;;;0.20;0.20;;;19.70;99.90;;;;;;5094766;28;20062;-79
2023/09/20 13:06:59;;;;;;;0.17;0.17;;;19.70;99.90;;;;;;5090171;28;20488;-80
2023/09/20 13:09:26;;;;;;;0.20;0.20;;;19.80;99.90;;;;;;5090334;28;20036;-80
2023/09/20 13:11:52;;;;;;;0.20;0.20;;;19.90;99.90;;;;;;5092223;28;20052;-80
2023/09/20 13:14:19;;;;;;;0.20;0.20;;;19.90;99.90;;;;;;5088108;28;20126;-80
2023/09/20 13:16:49;;;;;;;0.20;0.20;;;20.00;99.90;;;;;;5080666;28;20049;-80
2023/09/20 13:19:18;;;;;;;0.20;0.20;;;20.00;99.90;;;;;;5088488;28;20471;-80
2023/09/20 13:21:45;;;;;;;0.10;0.10;;;20.10;99.90;;;;;;5093197;28;20051;-80
2023/09/20 13:24:11;;;;;;;0.20;0.20;;;20.10;99.90;;;;;;5092203;28;20406;-79
2023/09/20 13:26:38;;;;;;;0.10;0.10;;;20.10;99.90;;;;;;5093340;28;20043;-81
2023/09/20 13:29:05;;;;;;;0.10;0.10;;;20.20;99.90;;;;;;5092922;28;20457;-81
2023/09/20 13:31:31;;;;;;;0.20;0.20;;;20.20;99.90;;;;;;5092738;28;20090;-81
2023/09/20 13:33:57;;;;;;;0.10;0.10;;;20.10;99.90;;;;;;5093839;28;20057;-80
2023/09/20 13:36:25;;;;;;;0.20;0.20;;;20.20;99.90;;;;;;5087654;28;20109;-81